createdAt,value
2018-06-28T00:00:28.065Z,9.03
2018-06-28T00:02:57.499Z,7.00
2018-06-28T00:05:26.976Z,6.93
2018-06-28T00:07:56.575Z,6.13
2018-06-28T00:10:25.977Z,6.87
2018-06-28T00:12:55.425Z,5.70
2018-06-28T00:15:24.896Z,6.20
2018-06-28T00:17:54.316Z,7.00
2018-06-28T00:20:23.735Z,6.23
2018-06-28T00:22:53.119Z,6.90
2018-06-28T00:25:22.548Z,7.27
2018-06-28T00:27:52.071Z,7.10
2018-06-28T00:30:21.655Z,7.73
2018-06-28T00:32:51.073Z,6.47
2018-06-28T00:35:20.577Z,7.77
2018-06-28T00:37:49.964Z,14.87
2018-06-28T00:40:19.372Z,7.60
2018-06-28T00:42:48.803Z,8.37
2018-06-28T00:45:18.322Z,9.37
2018-06-28T00:47:47.664Z,9.27
2018-06-28T00:50:17.401Z,9.87
2018-06-28T00:52:46.872Z,9.10
2018-06-28T00:55:16.814Z,8.70
2018-06-28T00:57:46.544Z,9.27
2018-06-28T01:00:16.008Z,9.73
2018-06-28T01:02:45.448Z,9.63
2018-06-28T01:05:16.088Z,8.67
2018-06-28T01:07:45.470Z,13.57
2018-06-28T01:10:15.898Z,10.03
2018-06-28T01:12:45.309Z,9.03
2018-06-28T01:15:14.725Z,11.60
2018-06-28T01:17:44.150Z,9.47
2018-06-28T01:20:13.684Z,11.13
2018-06-28T01:22:43.089Z,9.73
2018-06-28T01:25:12.503Z,10.80
2018-06-28T01:27:41.835Z,12.93
2018-06-28T01:30:12.202Z,11.67
2018-06-28T01:32:41.610Z,11.00
2018-06-28T01:35:11.926Z,12.70
2018-06-28T01:37:41.347Z,12.47
2018-06-28T01:40:10.772Z,12.00
2018-06-28T01:42:55.239Z,10.70
2018-06-28T01:45:25.041Z,14.50
2018-06-28T01:47:55.042Z,12.30
2018-06-28T01:50:24.463Z,13.20
2018-06-28T01:52:54.266Z,13.50
2018-06-28T01:55:23.816Z,12.10
2018-06-28T01:57:53.179Z,13.87
2018-06-28T02:00:22.923Z,12.17
2018-06-28T02:02:52.322Z,13.23
2018-06-28T02:05:21.707Z,15.60
2018-06-28T02:07:51.093Z,12.43
2018-06-28T02:10:20.678Z,19.30
2018-06-28T02:12:50.084Z,13.73
2018-06-28T02:15:19.597Z,12.93
2018-06-28T02:17:49.043Z,12.07
2018-06-28T02:20:18.437Z,11.97
2018-06-28T02:22:48.934Z,12.13
2018-06-28T02:25:18.514Z,13.60
2018-06-28T02:27:48.090Z,13.10
2018-06-28T02:30:17.598Z,13.30
2018-06-28T02:32:46.998Z,15.00
2018-06-28T02:35:16.755Z,15.40
2018-06-28T02:37:46.168Z,14.33
2018-06-28T02:40:15.572Z,13.73
2018-06-28T02:42:44.970Z,16.83
2018-06-28T02:45:15.354Z,17.10
2018-06-28T02:47:44.748Z,16.57
2018-06-28T02:50:14.181Z,20.00
2018-06-28T02:52:44.074Z,15.47
2018-06-28T02:55:13.499Z,14.60
2018-06-28T02:57:42.924Z,16.03
2018-06-28T03:00:15.856Z,15.93
2018-06-28T03:02:45.336Z,14.97
2018-06-28T03:05:15.111Z,14.73
2018-06-28T03:07:45.044Z,15.60
2018-06-28T03:10:14.425Z,14.87
2018-06-28T03:12:44.312Z,16.00
2018-06-28T03:15:14.099Z,15.90
2018-06-28T03:17:43.717Z,16.53
2018-06-28T03:20:13.114Z,16.67
2018-06-28T03:22:42.580Z,16.30
2018-06-28T03:25:11.980Z,16.33
2018-06-28T03:27:41.409Z,16.40
2018-06-28T03:30:10.786Z,15.97
2018-06-28T03:32:40.167Z,16.60
2018-06-28T03:35:09.714Z,15.10
2018-06-28T03:37:39.149Z,15.07
2018-06-28T03:40:09.434Z,16.07
2018-06-28T03:42:38.837Z,15.80
2018-06-28T03:45:14.973Z,14.27
2018-06-28T03:47:44.379Z,13.70
2018-06-28T03:50:15.350Z,12.80
2018-06-28T03:52:44.812Z,11.60
2018-06-28T03:55:15.287Z,12.17
2018-06-28T03:57:44.686Z,10.90
2018-06-28T04:00:15.936Z,11.03
2018-06-28T04:02:45.316Z,10.73
2018-06-28T04:05:15.451Z,10.50
2018-06-28T04:07:44.890Z,9.53
2018-06-28T04:10:14.285Z,9.37
2018-06-28T04:12:43.620Z,8.50
2018-06-28T04:15:13.311Z,9.80
2018-06-28T04:17:42.798Z,8.87
2018-06-28T04:20:12.263Z,9.40
2018-06-28T04:22:41.649Z,7.30
2018-06-28T04:25:11.673Z,8.07
2018-06-28T04:27:41.063Z,8.53
2018-06-28T04:30:10.464Z,8.90
2018-06-28T04:32:39.842Z,8.90
2018-06-28T04:35:09.283Z,8.90
2018-06-28T04:37:38.677Z,7.93
2018-06-28T04:40:11.292Z,13.17
2018-06-28T04:42:40.628Z,9.83
2018-06-28T04:45:10.057Z,7.90
2018-06-28T04:47:39.411Z,7.77
2018-06-28T04:50:13.682Z,8.27
2018-06-28T04:52:43.061Z,8.00
2018-06-28T04:55:12.604Z,9.37
2018-06-28T04:57:42.000Z,9.00
2018-06-28T05:00:11.428Z,9.60
2018-06-28T05:02:40.808Z,10.43
2018-06-28T05:05:10.267Z,7.80
2018-06-28T05:07:39.656Z,7.73
2018-06-28T05:10:15.800Z,9.90
2018-06-28T05:12:45.148Z,10.40
2018-06-28T05:15:14.523Z,14.10
2018-06-28T05:17:43.866Z,8.67
2018-06-28T05:20:13.360Z,9.40
2018-06-28T05:22:42.752Z,10.63
2018-06-28T05:25:26.712Z,18.30
2018-06-28T05:27:56.259Z,7.57
2018-06-28T05:30:26.284Z,8.83
2018-06-28T05:32:55.870Z,9.43
2018-06-28T05:35:26.309Z,8.57
2018-06-28T05:37:55.700Z,7.03
2018-06-28T05:40:26.738Z,12.00
2018-06-28T05:42:56.165Z,9.07
2018-06-28T05:45:25.844Z,7.60
2018-06-28T05:47:55.177Z,8.47
2018-06-28T05:50:24.578Z,7.50
2018-06-28T05:52:53.964Z,7.20
2018-06-28T05:55:23.361Z,7.83
2018-06-28T05:57:54.508Z,8.40
2018-06-28T06:00:23.905Z,6.50
2018-06-28T06:02:53.268Z,6.07
2018-06-28T06:05:23.772Z,5.50
2018-06-28T06:07:53.244Z,7.33
2018-06-28T06:10:23.017Z,6.67
2018-06-28T06:12:52.590Z,6.00
2018-06-28T06:15:22.709Z,7.03
2018-06-28T06:17:52.112Z,5.60
2018-06-28T06:20:24.785Z,7.57
2018-06-28T06:22:54.371Z,7.20
2018-06-28T06:25:24.057Z,7.40
2018-06-28T06:27:53.530Z,7.10
2018-06-28T06:30:22.996Z,6.70
2018-06-28T06:32:53.017Z,6.93
2018-06-28T06:35:22.424Z,9.37
2018-06-28T06:37:51.779Z,8.97
2018-06-28T06:40:21.232Z,8.97
2018-06-28T06:42:50.609Z,8.00
2018-06-28T06:45:20.032Z,8.97
2018-06-28T06:47:49.663Z,9.03
2018-06-28T06:50:19.045Z,10.10
2018-06-28T06:52:48.607Z,9.03
2018-06-28T06:55:18.024Z,11.57
2018-06-28T06:57:47.440Z,11.37
2018-06-28T07:00:16.845Z,12.70
2018-06-28T07:02:46.273Z,11.20
2018-06-28T07:05:15.698Z,10.70
2018-06-28T07:07:45.089Z,11.13
2018-06-28T07:10:14.546Z,11.73
2018-06-28T07:12:44.186Z,11.63
2018-06-28T07:15:13.621Z,11.60
2018-06-28T07:17:43.229Z,11.03
2018-06-28T07:20:12.605Z,11.80
2018-06-28T07:22:42.207Z,11.70
2018-06-28T07:25:11.761Z,12.67
2018-06-28T07:27:41.285Z,13.93
2018-06-28T07:30:10.649Z,15.90
2018-06-28T07:32:40.015Z,12.60
2018-06-28T07:35:11.052Z,15.70
2018-06-28T07:37:40.448Z,12.23
2018-06-28T07:40:09.964Z,11.33
2018-06-28T07:42:39.469Z,13.60
2018-06-28T07:45:09.219Z,13.63
2018-06-28T07:47:38.658Z,12.90
2018-06-28T07:50:09.466Z,13.00
2018-06-28T07:52:38.840Z,13.90
2018-06-28T07:55:13.634Z,15.20
2018-06-28T07:57:43.192Z,14.33
2018-06-28T08:00:12.621Z,15.87
2018-06-28T08:02:42.077Z,14.90
2018-06-28T08:05:12.169Z,13.87
2018-06-28T08:07:41.524Z,13.30
2018-06-28T08:10:11.057Z,15.23
2018-06-28T08:12:40.436Z,14.70
2018-06-28T08:15:10.209Z,14.57
2018-06-28T08:17:40.288Z,14.77
2018-06-28T08:20:09.728Z,14.53
2018-06-28T08:22:39.168Z,15.53
2018-06-28T08:25:08.542Z,21.17
2018-06-28T08:27:37.953Z,14.70
2018-06-28T08:30:07.456Z,15.53
2018-06-28T08:32:36.873Z,13.83
2018-06-28T08:35:09.578Z,13.77
2018-06-28T08:37:38.846Z,13.60
2018-06-28T08:40:08.296Z,13.00
2018-06-28T08:42:37.738Z,12.93
2018-06-28T08:45:07.290Z,12.67
2018-06-28T08:47:36.693Z,13.33
2018-06-28T08:50:06.667Z,12.53
2018-06-28T08:52:36.071Z,12.00
2018-06-28T08:55:07.054Z,14.00
2018-06-28T08:57:36.551Z,15.13
2018-06-28T09:00:08.130Z,17.37
2018-06-28T09:02:37.482Z,13.67
2018-06-28T09:05:07.184Z,13.07
2018-06-28T09:07:37.054Z,10.80
2018-06-28T09:10:06.675Z,11.27
2018-06-28T09:12:36.107Z,11.93
2018-06-28T09:15:06.033Z,11.10
2018-06-28T09:17:35.423Z,11.70
2018-06-28T09:20:05.572Z,12.37
2018-06-28T09:22:35.834Z,13.50
2018-06-28T09:25:06.396Z,11.10
2018-06-28T09:27:36.115Z,12.73
2018-06-28T09:30:06.539Z,12.53
2018-06-28T09:32:36.018Z,11.10
2018-06-28T09:35:05.760Z,10.30
2018-06-28T09:37:35.083Z,12.20
2018-06-28T09:40:05.081Z,9.57
2018-06-28T09:42:34.720Z,13.10
2018-06-28T09:45:04.863Z,10.10
2018-06-28T09:47:34.390Z,30.47
2018-06-28T09:50:04.260Z,9.47
2018-06-28T09:52:33.647Z,9.80
2018-06-28T09:55:03.156Z,10.40
2018-06-28T09:57:32.880Z,11.10
2018-06-28T10:00:02.278Z,7.93
2018-06-28T10:02:31.699Z,10.93
2018-06-28T10:05:01.136Z,11.03
2018-06-28T10:07:30.568Z,7.20
2018-06-28T10:09:59.952Z,9.57
2018-06-28T10:12:29.384Z,11.37
2018-06-28T10:14:59.172Z,7.47
2018-06-28T10:17:28.612Z,10.30
2018-06-28T10:19:58.000Z,6.70
2018-06-28T10:22:28.524Z,6.13
2018-06-28T10:24:57.951Z,6.70
2018-06-28T10:27:27.548Z,5.73
2018-06-28T10:29:56.979Z,6.60
2018-06-28T10:32:26.343Z,5.93
2018-06-28T10:34:55.728Z,14.40
2018-06-28T10:37:25.130Z,6.07
2018-06-28T10:39:54.556Z,6.03
2018-06-28T10:42:23.988Z,6.20
2018-06-28T10:44:53.361Z,6.30
2018-06-28T10:47:22.807Z,6.73
2018-06-28T10:49:52.160Z,5.23
2018-06-28T10:52:21.575Z,5.73
2018-06-28T10:54:51.054Z,6.07
2018-06-28T10:57:20.968Z,5.17
2018-06-28T10:59:50.329Z,6.23
2018-06-28T11:02:19.754Z,5.90
2018-06-28T11:04:49.280Z,6.57
2018-06-28T11:07:18.750Z,6.20
2018-06-28T11:09:48.260Z,6.87
2018-06-28T11:12:17.672Z,5.50
2018-06-28T11:14:47.260Z,7.70
2018-06-28T11:17:17.209Z,7.20
2018-06-28T11:19:46.608Z,6.83
2018-06-28T11:22:15.988Z,11.97
2018-06-28T11:24:45.396Z,5.40
2018-06-28T11:27:14.822Z,6.67
2018-06-28T11:29:46.905Z,5.67
2018-06-28T11:32:16.419Z,5.20
2018-06-28T11:34:45.792Z,5.30
2018-06-28T11:37:15.164Z,5.63
2018-06-28T11:39:44.591Z,15.23
2018-06-28T11:42:13.946Z,6.27
2018-06-28T11:44:43.312Z,5.93
2018-06-28T11:47:12.690Z,6.00
2018-06-28T11:49:42.040Z,7.80
2018-06-28T11:52:11.820Z,6.57
2018-06-28T11:54:41.366Z,6.80
2018-06-28T11:57:10.699Z,5.93
2018-06-28T11:59:40.061Z,5.60
2018-06-28T12:02:09.477Z,14.73
2018-06-28T12:04:38.848Z,4.83
2018-06-28T12:07:08.201Z,5.07
2018-06-28T12:09:37.581Z,5.73
2018-06-28T12:12:06.959Z,8.20
2018-06-28T12:14:36.296Z,5.80
2018-06-28T12:17:05.671Z,7.80
2018-06-28T12:19:35.121Z,5.10
2018-06-28T12:22:04.536Z,5.07
2018-06-28T12:24:33.941Z,5.23
2018-06-28T12:27:03.406Z,4.80
2018-06-28T12:29:32.729Z,5.03
2018-06-28T12:32:02.474Z,4.70
2018-06-28T12:34:32.076Z,5.77
2018-06-28T12:37:01.424Z,5.60
2018-06-28T12:39:30.812Z,6.93
2018-06-28T12:42:00.203Z,5.20
2018-06-28T12:44:29.553Z,4.53
2018-06-28T12:47:34.908Z,4.77
2018-06-28T12:50:05.137Z,4.13
2018-06-28T12:52:47.608Z,5.30
2018-06-28T12:55:18.654Z,6.10
2018-06-28T12:57:48.988Z,6.23
2018-06-28T13:00:19.077Z,7.93
2018-06-28T13:02:48.487Z,6.70
2018-06-28T13:05:18.088Z,9.00
2018-06-28T13:07:47.432Z,9.07
2018-06-28T13:10:18.231Z,6.97
2018-06-28T13:12:47.634Z,5.93
2018-06-28T13:15:17.068Z,6.07
2018-06-28T13:17:46.508Z,5.70
2018-06-28T13:20:16.171Z,5.27
2018-06-28T13:22:45.727Z,5.53
2018-06-28T13:25:15.242Z,5.63
2018-06-28T13:27:44.655Z,6.13
2018-06-28T13:30:14.019Z,8.00
2018-06-28T13:32:43.662Z,5.20
2018-06-28T13:35:13.036Z,5.53
2018-06-28T13:37:42.424Z,6.00
2018-06-28T13:40:11.904Z,5.83
2018-06-28T13:42:41.276Z,7.10
2018-06-28T13:45:10.621Z,6.47
2018-06-28T13:47:40.016Z,6.00
2018-06-28T13:50:09.429Z,11.00
2018-06-28T13:52:38.877Z,5.90
2018-06-28T13:55:08.312Z,6.67
2018-06-28T13:57:37.771Z,5.50
2018-06-28T14:00:07.739Z,5.67
2018-06-28T14:02:37.439Z,6.07
2018-06-28T14:05:07.268Z,6.73
2018-06-28T14:07:37.429Z,5.10
2018-06-28T14:10:07.300Z,7.43
2018-06-28T14:12:37.032Z,5.30
2018-06-28T14:15:07.336Z,5.37
2018-06-28T14:17:37.756Z,5.20
2018-06-28T14:20:08.628Z,6.23
2018-06-28T14:22:38.111Z,4.97
2018-06-28T14:25:07.745Z,4.63
2018-06-28T14:27:37.107Z,3.93
2018-06-28T14:30:07.739Z,5.70
2018-06-28T14:32:37.440Z,5.37
2018-06-28T14:35:07.419Z,9.97
2018-06-28T14:37:37.090Z,4.63
2018-06-28T14:40:07.432Z,5.23
2018-06-28T14:42:36.840Z,6.00
2018-06-28T14:45:06.852Z,7.73
2018-06-28T14:47:36.818Z,6.37
2018-06-28T14:50:06.479Z,5.67
2018-06-28T14:52:36.350Z,6.40
2018-06-28T14:55:06.336Z,6.20
2018-06-28T14:57:35.969Z,5.60
2018-06-28T15:00:06.524Z,5.60
2018-06-28T15:02:35.874Z,8.37
2018-06-28T15:05:05.891Z,6.00
2018-06-28T15:07:35.293Z,7.57
2018-06-28T15:10:05.298Z,10.40
2018-06-28T15:12:34.670Z,11.73
2018-06-28T15:15:04.381Z,6.23
2018-06-28T15:17:34.115Z,6.90
2018-06-28T15:20:03.670Z,8.60
2018-06-28T15:22:33.034Z,7.80
2018-06-28T15:25:02.438Z,6.73
2018-06-28T15:27:31.921Z,5.73
2018-06-28T15:30:01.391Z,7.33
2018-06-28T15:32:30.740Z,12.60
2018-06-28T15:35:00.138Z,7.20
2018-06-28T15:37:29.484Z,7.37
2018-06-28T15:39:58.891Z,7.07
2018-06-28T15:42:28.532Z,9.23
2018-06-28T15:44:58.151Z,6.63
2018-06-28T15:47:28.684Z,9.43
2018-06-28T15:49:58.167Z,5.70
2018-06-28T15:52:27.977Z,4.93
2018-06-28T15:54:57.732Z,10.77
2018-06-28T15:57:27.216Z,6.80
2018-06-28T15:59:57.061Z,11.60
2018-06-28T16:02:26.650Z,6.80
2018-06-28T16:04:56.055Z,6.50
2018-06-28T16:07:25.389Z,8.37
2018-06-28T16:09:54.788Z,7.43
2018-06-28T16:12:24.218Z,7.00
2018-06-28T16:14:53.643Z,6.20
2018-06-28T16:17:23.154Z,6.97
2018-06-28T16:19:52.519Z,10.07
2018-06-28T16:22:23.035Z,9.30
2018-06-28T16:24:52.397Z,13.00
2018-06-28T16:27:21.736Z,13.80
2018-06-28T16:29:51.136Z,12.57
2018-06-28T16:32:20.568Z,13.60
2018-06-28T16:34:49.969Z,13.10
2018-06-28T16:37:19.431Z,14.60
2018-06-28T16:39:48.800Z,23.10
2018-06-28T16:42:18.215Z,18.87
2018-06-28T16:44:47.603Z,20.30
2018-06-28T16:47:16.988Z,19.17
2018-06-28T16:49:46.377Z,17.03
2018-06-28T16:52:15.989Z,17.70
2018-06-28T16:54:45.563Z,17.23
2018-06-28T16:57:14.929Z,14.83
2018-06-28T16:59:44.416Z,15.20
2018-06-28T17:02:14.147Z,17.43
2018-06-28T17:04:43.925Z,16.40
2018-06-28T17:07:13.354Z,15.87
2018-06-28T17:09:42.751Z,15.30
2018-06-28T17:12:12.255Z,15.80
2018-06-28T17:14:41.698Z,13.10
2018-06-28T17:17:11.287Z,13.50
2018-06-28T17:19:40.777Z,13.60
2018-06-28T17:22:10.173Z,14.67
2018-06-28T17:24:40.147Z,14.00
2018-06-28T17:27:09.641Z,14.60
2018-06-28T17:29:39.195Z,11.17
2018-06-28T17:32:08.719Z,12.80
2018-06-28T17:34:38.329Z,14.43
2018-06-28T17:37:07.872Z,12.50
2018-06-28T17:39:37.300Z,11.40
2018-06-28T17:42:06.722Z,13.43
2018-06-28T17:44:36.248Z,11.33
2018-06-28T17:47:05.763Z,10.53
2018-06-28T17:49:35.166Z,10.13
2018-06-28T17:52:04.801Z,10.10
2018-06-28T17:54:34.326Z,11.17
2018-06-28T17:57:04.005Z,11.20
2018-06-28T17:59:33.420Z,9.43
2018-06-28T18:02:02.801Z,12.57
2018-06-28T18:04:32.224Z,13.07
2018-06-28T18:07:01.655Z,17.07
2018-06-28T18:09:31.131Z,14.60
2018-06-28T18:12:00.510Z,13.63
2018-06-28T18:14:30.804Z,14.27
2018-06-28T18:17:00.259Z,13.93
2018-06-28T18:19:29.939Z,14.60
2018-06-28T18:21:59.332Z,11.43
2018-06-28T18:24:28.728Z,11.40
2018-06-28T18:26:58.190Z,11.93
2018-06-28T18:29:27.697Z,11.17
2018-06-28T18:31:57.473Z,11.80
2018-06-28T18:34:26.859Z,13.60
2018-06-28T18:36:56.274Z,14.53
2018-06-28T18:39:25.636Z,14.37
2018-06-28T18:41:55.013Z,13.83
2018-06-28T18:44:24.455Z,14.43
2018-06-28T18:46:55.261Z,13.20
2018-06-28T18:49:24.620Z,13.40
2018-06-28T18:51:54.018Z,13.80
2018-06-28T18:54:24.271Z,18.77
2018-06-28T18:56:53.691Z,18.83
2018-06-28T18:59:23.756Z,23.07
2018-06-28T19:01:53.311Z,19.30
2018-06-28T19:04:22.920Z,25.23
2018-06-28T19:06:52.378Z,18.90
2018-06-28T19:09:21.828Z,26.37
2018-06-28T19:11:51.255Z,20.20
2018-06-28T19:16:31.276Z,25.40
2018-06-28T19:19:01.369Z,32.47
2018-06-28T19:21:36.096Z,32.43
2018-06-28T19:24:05.909Z,30.40
2018-06-28T19:26:35.312Z,31.80
2018-06-28T19:29:09.943Z,24.63
2018-06-28T19:31:44.699Z,27.13
2018-06-28T19:34:14.062Z,27.50
2018-06-28T19:36:43.470Z,26.57
2018-06-28T19:39:18.080Z,27.17
2018-06-28T19:41:52.658Z,29.50
2018-06-28T19:44:22.092Z,32.63
2018-06-28T19:46:51.489Z,25.27
2018-06-28T19:49:26.067Z,34.93
2018-06-28T19:52:00.648Z,29.13
2018-06-28T19:54:30.081Z,27.57
2018-06-28T19:56:59.703Z,28.50
2018-06-28T19:59:29.264Z,31.97
2018-06-28T20:04:14.879Z,37.65
2018-06-28T20:06:44.891Z,32.30
2018-06-28T20:09:14.242Z,27.97
2018-06-28T20:11:43.659Z,29.40
2018-06-28T20:14:18.430Z,28.07
2018-06-28T20:16:53.142Z,31.67
2018-06-28T20:19:27.775Z,30.53
2018-06-28T20:21:57.184Z,28.10
2018-06-28T20:24:26.677Z,26.33
2018-06-28T20:27:01.493Z,27.60
2018-06-28T20:29:37.313Z,27.30
2018-06-28T20:32:12.415Z,29.93
2018-06-28T20:34:41.790Z,29.47
2018-06-28T20:37:12.169Z,28.07
2018-06-28T20:39:41.645Z,23.27
2018-06-28T20:42:11.059Z,30.17
2018-06-28T20:44:40.456Z,26.63
2018-06-28T20:47:09.903Z,22.90
2018-06-28T20:49:40.438Z,22.50
2018-06-28T20:52:09.818Z,22.30
2018-06-28T20:54:39.211Z,21.50
2018-06-28T20:57:08.904Z,25.47
2018-06-28T20:59:38.248Z,23.43
2018-06-28T21:02:09.491Z,26.67
2018-06-28T21:04:39.301Z,22.33
2018-06-28T21:07:09.161Z,21.17
2018-06-28T21:09:38.524Z,22.30
2018-06-28T21:12:07.887Z,17.90
2018-06-28T21:14:37.328Z,21.03
2018-06-28T21:17:07.137Z,17.07
2018-06-28T21:19:36.504Z,17.23
2018-06-28T21:22:06.133Z,19.33
2018-06-28T21:24:35.539Z,23.77
2018-06-28T21:27:05.124Z,18.13
2018-06-28T21:29:35.005Z,20.63
2018-06-28T21:32:04.371Z,13.03
2018-06-28T21:34:33.764Z,20.30
2018-06-28T21:37:03.254Z,18.70
2018-06-28T21:39:32.635Z,19.77
2018-06-28T21:42:02.032Z,21.57
2018-06-28T21:44:32.173Z,16.80
2018-06-28T21:47:01.722Z,18.17
2018-06-28T21:49:31.129Z,18.77
2018-06-28T21:52:00.684Z,14.43
2018-06-28T21:54:30.074Z,15.60
2018-06-28T21:56:59.405Z,32.27
2018-06-28T21:59:29.535Z,21.97
2018-06-28T22:01:58.927Z,13.93
2018-06-28T22:04:28.341Z,15.33
2018-06-28T22:06:57.740Z,14.53
2018-06-28T22:09:27.096Z,18.20
2018-06-28T22:11:56.454Z,17.90
2018-06-28T22:14:26.513Z,14.43
2018-06-28T22:16:56.085Z,14.30
2018-06-28T22:19:25.488Z,17.37
2018-06-28T22:21:55.220Z,19.13
2018-06-28T22:24:24.704Z,12.60
2018-06-28T22:26:54.301Z,12.83
2018-06-28T22:29:24.004Z,14.37
2018-06-28T22:31:53.364Z,17.30
2018-06-28T22:34:22.929Z,13.00
2018-06-28T22:36:52.316Z,14.53
2018-06-28T22:39:21.945Z,11.37
2018-06-28T22:41:51.430Z,14.37
2018-06-28T22:44:20.780Z,18.40
2018-06-28T22:46:50.121Z,14.30
2018-06-28T22:49:19.496Z,12.47
2018-06-28T22:51:49.812Z,13.43
2018-06-28T22:54:19.186Z,17.50
2018-06-28T22:56:48.539Z,12.60
2018-06-28T22:59:17.924Z,12.50
2018-06-28T23:01:47.396Z,13.23
2018-06-28T23:04:16.795Z,16.20
2018-06-28T23:06:46.192Z,18.30
2018-06-28T23:09:15.556Z,15.40
2018-06-28T23:11:44.903Z,13.73
2018-06-28T23:14:14.307Z,12.20
2018-06-28T23:16:43.734Z,14.80
2018-06-28T23:19:13.400Z,12.07
2018-06-28T23:21:42.996Z,12.47
2018-06-28T23:24:12.421Z,11.80
2018-06-28T23:26:41.788Z,12.40
2018-06-28T23:29:11.224Z,17.20
2018-06-28T23:31:40.859Z,11.70
2018-06-28T23:34:10.272Z,13.97
2018-06-28T23:36:39.648Z,13.00
2018-06-28T23:39:10.376Z,12.00
2018-06-28T23:41:39.801Z,16.93
2018-06-28T23:44:09.277Z,13.27
2018-06-28T23:46:38.685Z,13.87
2018-06-28T23:49:08.087Z,15.13
2018-06-28T23:51:37.434Z,14.87
2018-06-28T23:54:06.846Z,12.57
2018-06-28T23:56:36.208Z,13.80
2018-06-28T23:59:05.634Z,19.23
